Time;durP1;ratioP1;P1;durP2;ratioP2;P2;SDS_P1;SDS_P2;PMS_P1;PMS_P2;Temp;Humidity;BMP_temperature;BMP_pressure;BME280_temperature;BME280_humidity;BME280_pressure;Samples;Min_cycle;Max_cycle;Signal;HPM_P1;HPM_P2
2023/06/30 00:03:11;;;;;;;11.80;4.80;;;;;;;20.42;58.58;99541.47;10472127;28;20053;-61
2023/06/30 00:08:13;;;;;;;11.25;5.05;;;;;;;20.28;59.52;99542.09;10462613;28;20048;-61
2023/06/30 00:13:15;;;;;;;10.93;5.60;;;;;;;20.11;59.40;99535.09;10469951;28;20052;-61
2023/06/30 00:18:17;;;;;;;9.52;4.93;;;;;;;20.06;60.16;99529.44;10470889;28;20092;-61
2023/06/30 00:23:20;;;;;;;11.85;5.35;;;;;;;20.23;60.16;99523.19;10437991;28;20710;-61
2023/06/30 00:28:22;;;;;;;12.45;5.43;;;;;;;20.23;60.48;99526.66;10459240;28;20060;-61
2023/06/30 00:33:23;;;;;;;8.98;4.78;;;;;;;20.15;60.89;99516.00;10463464;28;21225;-61
2023/06/30 00:38:25;;;;;;;9.95;4.72;;;;;;;19.99;61.27;99504.53;10469752;28;20055;-60
2023/06/30 00:43:27;;;;;;;9.93;4.45;;;;;;;20.02;61.46;99505.03;10467018;28;20044;-61
2023/06/30 00:48:30;;;;;;;10.48;4.57;;;;;;;20.07;61.55;99512.53;10470067;28;20132;-61
2023/06/30 00:53:32;;;;;;;9.75;5.03;;;;;;;20.07;61.71;99515.19;10451610;28;20071;-61
2023/06/30 00:58:34;;;;;;;7.28;3.72;;;;;;;20.15;61.49;99507.25;10434576;28;20062;-61
2023/06/30 01:03:44;;;;;;;9.38;4.95;;;;;;;19.97;62.59;99502.03;10467497;28;20098;-61
2023/06/30 01:08:59;;;;;;;;;;;;;;;19.72;64.05;99510.03;10465440;28;20048;-61
2023/06/30 01:14:04;;;;;;;6.45;3.70;;;;;;;19.90;61.81;99500.19;10468473;28;19924;-61
2023/06/30 01:19:26;;;;;;;9.25;4.80;;;;;;;19.89;63.16;99490.56;10465187;28;20166;-61
2023/06/30 01:24:33;;;;;;;9.88;4.88;;;;;;;19.86;62.59;99473.16;10456971;28;20075;-61
2023/06/30 01:29:36;;;;;;;8.60;4.20;;;;;;;19.86;62.16;99467.00;10467912;28;20080;-61
2023/06/30 01:34:38;;;;;;;8.75;4.50;;;;;;;19.77;62.61;99474.06;10479145;28;20945;-61
2023/06/30 01:39:40;;;;;;;10.68;4.40;;;;;;;19.65;62.80;99469.22;10464698;28;20695;-61
2023/06/30 01:44:43;;;;;;;8.18;4.30;;;;;;;19.67;63.12;99467.22;10452541;28;20044;-61
2023/06/30 01:49:46;;;;;;;9.35;4.65;;;;;;;19.82;62.92;99476.28;10465163;28;20856;-61
2023/06/30 01:54:48;;;;;;;9.32;4.43;;;;;;;19.89;62.57;99464.00;10464979;28;20558;-61
2023/06/30 01:59:50;;;;;;;10.30;5.00;;;;;;;19.92;62.63;99461.03;10466774;28;20056;-61
2023/06/30 02:04:52;;;;;;;11.77;5.03;;;;;;;19.89;62.98;99471.97;10466284;28;20044;-61
2023/06/30 02:09:54;;;;;;;12.15;4.88;;;;;;;19.84;62.85;99480.44;10471739;28;20088;-61
2023/06/30 02:14:56;;;;;;;11.45;5.00;;;;;;;19.68;62.95;99484.81;10472834;28;20044;-61
2023/06/30 02:19:59;;;;;;;11.23;5.28;;;;;;;19.64;63.34;99492.28;10471790;28;20084;-61
2023/06/30 02:25:02;;;;;;;18.75;6.72;;;;;;;19.60;63.76;99495.41;10472824;28;20127;-61
2023/06/30 02:30:05;;;;;;;19.48;7.95;;;;;;;19.59;63.56;99491.06;10469793;28;20119;-62
2023/06/30 02:35:09;;;;;;;18.35;7.53;;;;;;;19.64;63.55;99489.63;10454523;28;20571;-61
2023/06/30 02:40:11;;;;;;;18.83;8.18;;;;;;;19.69;63.27;99489.13;10465295;28;20089;-61
2023/06/30 02:45:13;;;;;;;21.65;9.10;;;;;;;19.58;63.14;99490.28;10472030;28;20830;-61
2023/06/30 02:50:17;;;;;;;17.48;8.25;;;;;;;19.28;63.53;99491.59;10454825;28;21697;-61
2023/06/30 02:55:19;;;;;;;17.88;7.88;;;;;;;19.29;63.94;99495.94;10470334;28;20114;-61
2023/06/30 03:00:21;;;;;;;18.42;8.88;;;;;;;19.21;63.94;99495.03;10467001;28;20056;-61
2023/06/30 03:05:23;;;;;;;21.50;8.70;;;;;;;19.17;64.22;99493.69;10450549;28;20060;-61
2023/06/30 03:10:26;;;;;;;19.80;8.55;;;;;;;19.18;64.06;99482.91;10460268;28;20048;-61
2023/06/30 03:15:28;;;;;;;23.75;9.02;;;;;;;19.28;64.18;99486.28;10463129;28;20086;-61
2023/06/30 03:20:31;;;;;;;23.00;8.82;;;;;;;19.15;64.27;99472.66;10461184;28;20060;-62
2023/06/30 03:25:34;;;;;;;20.30;8.23;;;;;;;19.24;64.03;99476.16;10462155;28;20056;-61
2023/06/30 03:30:36;;;;;;;19.20;8.73;;;;;;;19.34;63.91;99461.78;10460874;28;20136;-61
2023/06/30 03:35:38;;;;;;;25.00;9.55;;;;;;;19.33;64.20;99468.09;10466965;28;20052;-61
2023/06/30 03:40:40;;;;;;;21.13;9.02;;;;;;;19.27;64.31;99471.38;10444213;28;20404;-61
2023/06/30 03:45:42;;;;;;;23.08;9.10;;;;;;;19.36;64.22;99464.28;10454373;28;20777;-61
2023/06/30 03:50:44;;;;;;;24.70;9.90;;;;;;;19.07;64.31;99464.66;10468516;28;20045;-61
2023/06/30 03:55:46;;;;;;;22.48;8.88;;;;;;;19.22;64.18;99472.81;10461492;28;20064;-61
2023/06/30 04:00:49;;;;;;;20.30;8.10;;;;;;;19.16;63.93;99484.91;10471669;28;20067;-61
2023/06/30 04:05:52;;;;;;;21.50;8.43;;;;;;;19.28;63.94;99485.44;10470884;28;20151;-61
2023/06/30 04:10:55;;;;;;;19.80;7.68;;;;;;;19.38;63.52;99476.41;10463120;28;20530;-61
2023/06/30 04:15:57;;;;;;;15.07;6.07;;;;;;;19.41;63.52;99481.41;10470333;28;20052;-61
2023/06/30 04:20:59;;;;;;;17.98;7.35;;;;;;;19.34;63.55;99483.00;10467818;28;20059;-61
2023/06/30 04:26:01;;;;;;;11.77;4.50;;;;;;;19.34;63.23;99496.28;10469080;28;20050;-62
2023/06/30 04:31:04;;;;;;;6.68;3.10;;;;;;;19.33;63.12;99499.94;10466023;28;20476;-61
2023/06/30 04:36:07;;;;;;;4.80;2.58;;;;;;;19.02;63.59;99498.72;10467662;28;20566;-61
2023/06/30 04:41:09;;;;;;;5.15;2.28;;;;;;;18.93;63.42;99504.09;10459150;28;20075;-60
2023/06/30 04:46:11;;;;;;;4.95;2.00;;;;;;;19.01;63.30;99504.16;10465451;28;20091;-61
2023/06/30 04:51:15;;;;;;;4.82;2.17;;;;;;;19.05;63.03;99511.69;10462176;28;20059;-61
2023/06/30 04:56:19;;;;;;;3.08;1.70;;;;;;;19.03;62.88;99518.94;10466787;28;20400;-61
2023/06/30 05:01:23;;;;;;;3.63;1.77;;;;;;;19.11;62.56;99515.53;10464498;28;20497;-62
2023/06/30 05:06:25;;;;;;;3.75;1.50;;;;;;;19.06;62.58;99515.97;10468712;28;20646;-61
2023/06/30 05:11:27;;;;;;;3.67;1.50;;;;;;;19.07;62.19;99516.81;10469326;28;20130;-62
2023/06/30 05:16:29;;;;;;;2.88;1.30;;;;;;;18.98;62.11;99520.34;10469877;28;20052;-61
2023/06/30 05:21:35;;;;;;;3.22;1.55;;;;;;;18.80;62.06;99517.75;10468473;28;20191;-61
2023/06/30 05:26:37;;;;;;;1.67;1.15;;;;;;;18.83;62.22;99520.06;10468794;28;20176;-61
2023/06/30 05:31:39;;;;;;;1.80;1.10;;;;;;;18.91;62.02;99524.63;10468242;28;20178;-61
2023/06/30 05:36:44;;;;;;;2.33;1.30;;;;;;;18.71;62.33;99531.91;10469640;28;20048;-61
2023/06/30 05:41:46;;;;;;;3.42;1.90;;;;;;;18.52;62.34;99545.31;10482874;28;20817;-61
2023/06/30 05:46:48;;;;;;;2.90;1.55;;;;;;;18.35;62.38;99546.97;10469474;28;20459;-60
2023/06/30 05:51:50;;;;;;;2.97;1.58;;;;;;;18.27;62.08;99549.53;10480443;28;20611;-61
2023/06/30 05:56:52;;;;;;;2.90;1.67;;;;;;;18.06;61.73;99542.78;10468948;28;20135;-61
2023/06/30 06:01:54;;;;;;;1.23;1.10;;;;;;;18.01;62.10;99548.56;10466195;28;20057;-61
2023/06/30 06:06:57;;;;;;;2.00;1.33;;;;;;;17.97;61.56;99557.78;10465975;28;20139;-61
2023/06/30 06:12:02;;;;;;;2.10;1.20;;;;;;;17.95;61.54;99551.78;10468577;28;20044;-61
2023/06/30 06:17:04;;;;;;;1.20;1.00;;;;;;;18.09;61.26;99556.59;10466520;28;20138;-61
2023/06/30 06:22:06;;;;;;;1.35;1.10;;;;;;;18.12;60.76;99566.84;10484166;28;20052;-61
2023/06/30 06:27:08;;;;;;;1.83;1.10;;;;;;;18.14;60.31;99580.78;10464436;28;20420;-61
2023/06/30 06:32:10;;;;;;;2.30;1.25;;;;;;;18.05;60.49;99596.72;10464426;28;20109;-61
2023/06/30 06:37:13;;;;;;;2.53;1.30;;;;;;;17.94;60.79;99595.09;10466447;28;20048;-61
2023/06/30 06:42:15;;;;;;;1.73;1.20;;;;;;;17.95;60.36;99594.13;10464187;28;20102;-62
2023/06/30 06:47:54;;;;;;;1.55;1.15;;;;;;;18.36;59.84;99584.88;10466762;28;20045;-61
2023/06/30 06:52:56;;;;;;;2.00;1.20;;;;;;;18.21;58.82;99591.66;10465615;28;20051;-61
2023/06/30 06:57:58;;;;;;;2.50;1.25;;;;;;;18.41;58.22;99593.19;10466926;28;20136;-62
2023/06/30 07:03:00;;;;;;;1.70;1.10;;;;;;;18.66;58.00;99589.81;10464184;28;20258;-61
2023/06/30 07:08:04;;;;;;;1.52;1.20;;;;;;;19.03;57.84;99587.84;10463479;28;20121;-62
2023/06/30 07:13:07;;;;;;;1.83;1.20;;;;;;;19.35;56.74;99584.63;10464653;28;20649;-61
2023/06/30 07:18:09;;;;;;;1.38;1.10;;;;;;;19.69;55.95;99582.81;10464201;28;20052;-62
2023/06/30 07:23:11;;;;;;;3.35;1.20;;;;;;;20.00;55.25;99586.66;10475741;28;20056;-61
2023/06/30 07:28:13;;;;;;;1.10;1.00;;;;;;;20.24;54.63;99588.56;10473052;28;20143;-61
2023/06/30 07:33:17;;;;;;;1.33;0.95;;;;;;;20.09;54.54;99600.81;10475598;28;20052;-61
2023/06/30 07:38:19;;;;;;;1.05;0.88;;;;;;;19.86;55.03;99610.31;10471160;28;20052;-61
2023/06/30 07:43:21;;;;;;;1.45;1.10;;;;;;;19.90;54.39;99611.66;10471160;28;20084;-61
2023/06/30 07:48:23;;;;;;;1.48;1.27;;;;;;;19.73;54.24;99617.81;10471445;28;20400;-61
2023/06/30 07:53:25;;;;;;;1.15;0.90;;;;;;;19.72;54.28;99613.53;10472172;28;20056;-62
2023/06/30 07:58:27;;;;;;;2.13;0.93;;;;;;;19.82;54.16;99620.44;10472408;28;20040;-61
2023/06/30 08:03:29;;;;;;;1.13;1.00;;;;;;;19.74;53.96;99611.53;10463054;28;20073;-61
2023/06/30 08:08:32;;;;;;;1.90;1.08;;;;;;;19.90;53.80;99622.28;10469539;28;20431;-61
2023/06/30 08:13:34;;;;;;;0.80;0.80;;;;;;;19.96;53.52;99622.47;10465941;28;20067;-61
2023/06/30 08:18:37;;;;;;;1.50;1.10;;;;;;;19.65;53.49;99623.09;10463841;28;20048;-61
2023/06/30 08:23:51;;;;;;;0.93;0.88;;;;;;;19.67;53.45;99623.75;10467784;28;20496;-61
2023/06/30 08:28:54;;;;;;;2.60;1.30;;;;;;;19.35;53.61;99638.50;10467600;28;20056;-61
2023/06/30 08:33:56;;;;;;;2.33;1.20;;;;;;;18.97;53.90;99646.72;10467780;28;20393;-61
2023/06/30 08:38:58;;;;;;;3.10;1.27;;;;;;;19.08;53.74;99640.41;10468868;28;20129;-61
2023/06/30 08:44:01;;;;;;;2.90;1.50;;;;;;;18.92;53.32;99635.75;10466835;28;20078;-61
2023/06/30 08:49:04;;;;;;;1.70;1.20;;;;;;;19.19;53.01;99635.72;10468404;28;20053;-60
2023/06/30 08:54:07;;;;;;;2.63;1.30;;;;;;;20.01;51.91;99640.59;10467466;28;20083;-61
2023/06/30 08:59:10;;;;;;;2.10;1.30;;;;;;;20.16;51.68;99633.69;10454869;28;20068;-62
2023/06/30 09:04:12;;;;;;;2.72;1.42;;;;;;;19.89;51.89;99647.97;10464713;28;20071;-62
2023/06/30 09:09:25;;;;;;;2.03;1.27;;;;;;;19.84;51.52;99652.09;10464407;28;20060;-62
2023/06/30 09:14:33;;;;;;;1.65;1.20;;;;;;;19.81;50.54;99649.72;10466987;28;20052;-63
2023/06/30 09:19:35;;;;;;;1.10;1.00;;;;;;;20.12;49.64;99654.41;10465268;28;20092;-62
2023/06/30 09:24:38;;;;;;;1.13;1.00;;;;;;;20.20;48.50;99650.97;10468910;28;20068;-63
2023/06/30 09:29:40;;;;;;;1.55;1.00;;;;;;;20.29;47.55;99636.72;10462980;28;20053;-63
2023/06/30 09:34:44;;;;;;;3.42;1.20;;;;;;;20.65;46.45;99637.34;10465285;28;20041;-62
2023/06/30 09:39:51;;;;;;;1.70;1.10;;;;;;;21.11;44.33;99643.91;10371885;28;20130;-63
2023/06/30 09:44:53;;;;;;;1.92;1.30;;;;;;;22.21;44.44;99644.97;10367331;28;20131;-62
2023/06/30 09:49:55;;;;;;;2.15;1.40;;;;;;;22.45;43.88;99648.31;10382370;28;20111;-63
2023/06/30 09:54:57;;;;;;;1.95;1.30;;;;;;;22.54;43.71;99633.94;10382614;28;20050;-62
2023/06/30 09:59:59;;;;;;;4.90;1.50;;;;;;;22.97;43.14;99624.53;10381148;28;20053;-63
2023/06/30 10:05:03;;;;;;;5.75;1.67;;;;;;;22.92;43.29;99626.94;10380130;28;20080;-62
2023/06/30 10:10:08;;;;;;;2.92;1.55;;;;;;;23.38;42.37;99619.69;10381869;28;20134;-63
2023/06/30 10:15:10;;;;;;;3.03;1.42;;;;;;;24.15;41.15;99611.25;10383526;28;20049;-63
2023/06/30 10:20:13;;;;;;;3.65;1.33;;;;;;;24.73;39.27;99601.47;10376159;28;20162;-63
2023/06/30 10:25:18;;;;;;;3.58;1.55;;;;;;;24.98;35.03;99605.38;10381825;28;20060;-63
2023/06/30 10:30:21;;;;;;;1.65;1.20;;;;;;;24.51;37.50;99610.44;10379889;28;20102;-63
2023/06/30 10:35:24;;;;;;;1.77;1.08;;;;;;;24.49;36.42;99621.31;10378288;28;20087;-63
2023/06/30 10:40:29;;;;;;;1.23;0.80;;;;;;;24.52;34.84;99615.59;10376395;28;20043;-63
2023/06/30 10:45:35;;;;;;;5.50;1.00;;;;;;;24.46;33.19;99613.69;10381654;28;20038;-63
2023/06/30 10:50:46;;;;;;;0.95;0.90;;;;;;;24.08;32.96;99612.97;10368195;28;20489;-63
2023/06/30 10:55:55;;;;;;;1.02;0.80;;;;;;;24.24;33.16;99594.09;10371378;28;20049;-63
2023/06/30 11:01:05;;;;;;;1.20;0.80;;;;;;;24.37;32.29;99600.63;10370452;28;20052;-63
2023/06/30 11:06:21;;;;;;;2.05;0.80;;;;;;;24.88;32.50;99588.84;10373910;28;20394;-63
2023/06/30 11:11:23;;;;;;;4.10;0.98;;;;;;;25.37;32.60;99580.84;10370583;28;20045;-63
2023/06/30 11:16:29;;;;;;;1.27;0.85;;;;;;;25.09;32.14;99584.31;10366432;28;20136;-63
2023/06/30 11:21:32;;;;;;;1.88;1.15;;;;;;;24.71;32.34;99574.03;10374534;28;20061;-64
2023/06/30 11:26:36;;;;;;;2.30;1.00;;;;;;;24.62;33.07;99580.53;10378383;28;20489;-64
2023/06/30 11:31:38;;;;;;;3.65;1.00;;;;;;;24.73;33.09;99575.56;10378296;28;20104;-64
2023/06/30 11:36:40;;;;;;;1.60;1.02;;;;;;;24.52;33.61;99564.78;10377124;28;20043;-64
2023/06/30 11:41:43;;;;;;;2.92;1.00;;;;;;;24.61;32.79;99563.63;10377133;28;20045;-63
2023/06/30 11:46:46;;;;;;;2.22;1.00;;;;;;;24.60;33.01;99562.00;10396516;28;20037;-63
2023/06/30 11:51:50;;;;;;;3.97;1.15;;;;;;;24.95;33.23;99555.78;10376884;28;20041;-65
2023/06/30 11:56:53;;;;;;;3.25;1.27;;;;;;;25.28;33.22;99545.34;10379719;28;20057;-64
2023/06/30 12:01:55;;;;;;;2.08;1.20;;;;;;;25.27;33.23;99542.84;10375649;28;20057;-64
2023/06/30 12:06:57;;;;;;;3.53;1.20;;;;;;;24.86;33.53;99551.59;10380526;28;20658;-64
2023/06/30 12:12:00;;;;;;;1.20;1.05;;;;;;;25.30;33.53;99545.97;10383407;28;20562;-62
2023/06/30 12:17:03;;;;;;;2.50;1.30;;;;;;;25.90;32.60;99540.78;10386889;28;20053;-63
2023/06/30 12:22:09;;;;;;;2.83;1.20;;;;;;;25.70;32.66;99536.38;10380757;28;20889;-62
2023/06/30 12:27:12;;;;;;;1.48;1.00;;;;;;;25.60;32.53;99539.41;10386245;28;20608;-62
2023/06/30 12:32:15;;;;;;;1.70;1.15;;;;;;;25.21;32.39;99527.56;10379648;28;20123;-63
2023/06/30 12:37:19;;;;;;;0.90;0.88;;;;;;;24.83;32.87;99535.09;10382888;28;20041;-64
2023/06/30 12:42:27;;;;;;;0.82;0.82;;;;;;;24.39;31.26;99521.06;10380528;28;20725;-64
2023/06/30 12:47:30;;;;;;;1.48;1.10;;;;;;;24.46;32.23;99527.28;10386146;28;20140;-64
2023/06/30 12:52:33;;;;;;;1.73;1.00;;;;;;;24.35;32.98;99520.59;10382429;28;20049;-63
2023/06/30 12:57:35;;;;;;;1.83;1.05;;;;;;;23.89;32.99;99522.72;10385916;28;20060;-64
2023/06/30 13:02:38;;;;;;;1.85;1.02;;;;;;;23.86;33.50;99516.94;10382875;28;20046;-64
2023/06/30 13:07:40;;;;;;;2.88;1.10;;;;;;;24.27;33.97;99508.19;10381987;28;20090;-63
2023/06/30 13:12:42;;;;;;;1.27;1.02;;;;;;;24.42;33.44;99508.13;10379968;28;20061;-63
2023/06/30 13:17:45;;;;;;;1.30;1.00;;;;;;;24.50;33.52;99509.84;10384200;28;20054;-63
2023/06/30 13:22:47;;;;;;;3.42;1.27;;;;;;;24.40;33.38;99509.34;10379666;28;20144;-63
2023/06/30 13:28:09;;;;;;;3.10;1.00;;;;;;;24.53;33.16;99506.81;10367315;28;20588;-63
2023/06/30 13:33:11;;;;;;;1.17;0.77;;;;;;;24.56;31.68;99501.91;10376444;28;20735;-62
2023/06/30 13:38:13;;;;;;;1.45;0.82;;;;;;;24.41;32.37;99500.31;10383709;28;20133;-63
2023/06/30 13:43:17;;;;;;;3.25;0.98;;;;;;;24.80;32.80;99500.69;10378345;28;20160;-63
2023/06/30 13:48:19;;;;;;;1.00;0.93;;;;;;;25.54;31.98;99501.88;10378287;28;20417;-63
2023/06/30 13:53:21;;;;;;;1.38;1.10;;;;;;;25.97;32.10;99502.50;10381798;28;20136;-63
2023/06/30 13:58:25;;;;;;;1.35;0.82;;;;;;;26.53;31.25;99491.31;10381168;28;20064;-63
2023/06/30 14:03:27;;;;;;;1.42;0.90;;;;;;;26.74;30.29;99492.19;10378264;28;20076;-63
2023/06/30 14:08:29;;;;;;;1.52;0.85;;;;;;;25.98;30.95;99488.09;10381277;28;20558;-63
2023/06/30 14:13:32;;;;;;;5.07;1.10;;;;;;;25.45;31.60;99485.13;10379098;28;20100;-64
2023/06/30 14:18:35;;;;;;;1.77;1.15;;;;;;;25.95;31.60;99485.78;10380904;28;20079;-63
2023/06/30 14:23:37;;;;;;;2.63;1.10;;;;;;;25.84;31.57;99477.28;10380947;28;20053;-63
2023/06/30 14:28:40;;;;;;;1.25;1.00;;;;;;;26.02;30.74;99474.06;10380341;28;20059;-60
2023/06/30 14:33:42;;;;;;;0.88;0.70;;;;;;;26.15;30.90;99465.25;10379110;28;20046;-61
2023/06/30 14:38:44;;;;;;;2.10;1.45;;;;;;;26.06;30.55;99474.53;10382872;28;20517;-60
2023/06/30 14:43:46;;;;;;;5.00;0.90;;;;;;;25.96;30.60;99460.69;10372612;28;20041;-60
2023/06/30 14:48:48;;;;;;;1.35;0.98;;;;;;;25.56;30.79;99456.97;10380059;28;20145;-60
2023/06/30 14:53:50;;;;;;;2.65;0.90;;;;;;;25.38;30.32;99462.03;10376612;28;20045;-60
2023/06/30 14:58:54;;;;;;;2.88;0.82;;;;;;;25.20;30.90;99465.22;10380763;28;20577;-60
2023/06/30 15:03:56;;;;;;;1.67;0.80;;;;;;;24.96;30.20;99449.56;10375467;28;20056;-60
2023/06/30 15:08:59;;;;;;;1.33;0.90;;;;;;;24.84;30.83;99446.63;10377516;28;20128;-60
2023/06/30 15:14:01;;;;;;;1.17;0.80;;;;;;;24.92;30.64;99445.66;10378490;28;20537;-60
2023/06/30 15:19:03;;;;;;;1.30;0.75;;;;;;;24.89;30.55;99440.69;10377725;28;20057;-60
2023/06/30 15:24:05;;;;;;;1.05;0.80;;;;;;;25.05;30.78;99438.56;10377420;28;20060;-59
2023/06/30 15:29:08;;;;;;;2.47;0.88;;;;;;;25.08;30.44;99432.00;10375937;28;20049;-60
2023/06/30 15:34:10;;;;;;;0.55;0.50;;;;;;;24.63;30.58;99416.41;10378955;28;20049;-60
2023/06/30 15:39:12;;;;;;;3.05;0.90;;;;;;;24.42;29.58;99419.09;10376395;28;20045;-60
2023/06/30 15:44:15;;;;;;;1.17;0.95;;;;;;;24.45;29.80;99419.53;10386844;28;20057;-60
2023/06/30 15:49:17;;;;;;;1.02;0.80;;;;;;;24.11;29.72;99422.94;10384672;28;20044;-60
2023/06/30 15:54:20;;;;;;;1.42;1.00;;;;;;;24.11;29.97;99406.06;10384396;28;20037;-60
2023/06/30 15:59:23;;;;;;;1.13;0.63;;;;;;;24.25;29.29;99402.50;10384596;28;20505;-59
2023/06/30 16:04:25;;;;;;;0.70;0.70;;;;;;;24.38;29.17;99404.47;10384182;28;20464;-60
2023/06/30 16:09:27;;;;;;;2.38;0.90;;;;;;;24.09;28.92;99397.41;10381407;28;20064;-60
2023/06/30 16:14:30;;;;;;;1.08;0.80;;;;;;;24.09;29.34;99400.91;10378347;28;20171;-60
2023/06/30 16:19:32;;;;;;;1.25;0.70;;;;;;;24.15;29.23;99391.28;10382985;28;20068;-60
2023/06/30 16:24:34;;;;;;;1.63;0.90;;;;;;;23.96;29.32;99386.56;10387371;28;20053;-60
2023/06/30 16:29:38;;;;;;;0.60;0.60;;;;;;;24.14;29.24;99379.78;10382171;28;20054;-60
2023/06/30 16:34:40;;;;;;;0.80;0.68;;;;;;;24.14;28.94;99387.78;10381999;28;20512;-60
2023/06/30 16:39:43;;;;;;;0.70;0.70;;;;;;;24.17;29.37;99387.41;10380262;28;20501;-60
2023/06/30 16:44:45;;;;;;;0.85;0.75;;;;;;;23.77;29.81;99396.03;10385099;28;20631;-60
2023/06/30 16:49:47;;;;;;;2.53;0.95;;;;;;;23.27;30.38;99402.16;10380345;28;20397;-60
2023/06/30 16:54:49;;;;;;;1.23;0.88;;;;;;;23.23;30.86;99402.69;10382626;28;20156;-59
2023/06/30 16:59:51;;;;;;;0.98;0.77;;;;;;;23.26;30.88;99397.84;10382456;28;20045;-60
2023/06/30 17:04:53;;;;;;;0.90;0.80;;;;;;;23.04;30.90;99409.44;10383754;28;20053;-60
2023/06/30 17:09:55;;;;;;;2.00;0.77;;;;;;;22.88;31.11;99414.13;10381525;28;20156;-60
2023/06/30 17:14:58;;;;;;;1.60;0.90;;;;;;;23.06;30.96;99409.25;10381031;28;20057;-60
2023/06/30 17:20:00;;;;;;;1.48;1.20;;;;;;;22.92;30.88;99413.59;10382508;28;20160;-60
2023/06/30 17:25:02;;;;;;;1.55;0.80;;;;;;;22.68;30.83;99413.75;10384922;28;20041;-60
2023/06/30 17:30:10;;;;;;;1.92;1.17;;;;;;;22.61;30.83;99418.19;10379819;28;20048;-60
2023/06/30 17:35:12;;;;;;;1.45;0.80;;;;;;;22.54;31.27;99420.72;10383106;28;20420;-60
2023/06/30 17:40:14;;;;;;;1.50;1.10;;;;;;;22.56;31.02;99424.03;10378549;28;20493;-61
2023/06/30 17:45:16;;;;;;;1.98;1.05;;;;;;;22.62;31.45;99433.16;10369717;28;20046;-59
2023/06/30 17:50:18;;;;;;;0.75;0.75;;;;;;;22.51;31.40;99430.94;10367520;28;21016;-60
2023/06/30 17:55:20;;;;;;;1.33;0.90;;;;;;;22.51;31.31;99437.09;10376042;28;20094;-59
2023/06/30 18:00:24;;;;;;;0.85;0.85;;;;;;;22.69;31.67;99429.59;10373441;28;20038;-59
2023/06/30 18:05:26;;;;;;;1.00;0.90;;;;;;;22.58;30.55;99435.34;10376115;28;20519;-59
2023/06/30 18:10:29;;;;;;;1.08;0.98;;;;;;;22.52;31.79;99428.09;10378417;28;20498;-60
2023/06/30 18:15:32;;;;;;;1.05;1.00;;;;;;;22.42;31.33;99440.81;10380356;28;20049;-60
2023/06/30 18:20:34;;;;;;;3.80;1.00;;;;;;;22.26;31.99;99432.97;10380773;28;20033;-60
2023/06/30 18:25:36;;;;;;;1.40;1.10;;;;;;;22.22;31.86;99437.00;10366446;28;20049;-62
2023/06/30 18:30:38;;;;;;;1.52;0.98;;;;;;;22.10;32.04;99440.25;10380752;28;20038;-59
2023/06/30 18:35:41;;;;;;;1.83;1.10;;;;;;;21.82;32.14;99440.69;10378221;28;20119;-61
2023/06/30 18:40:43;;;;;;;1.52;1.10;;;;;;;21.63;32.63;99442.97;10378410;28;20044;-59
2023/06/30 18:45:45;;;;;;;1.13;0.90;;;;;;;21.63;33.05;99435.81;10378918;28;20251;-59
2023/06/30 18:50:48;;;;;;;1.85;0.98;;;;;;;21.51;33.50;99439.03;10374690;28;20041;-59
2023/06/30 18:55:50;;;;;;;1.48;1.08;;;;;;;21.37;33.65;99443.25;10379186;28;20044;-59
2023/06/30 19:00:53;;;;;;;3.40;1.20;;;;;;;21.25;33.88;99452.59;10354703;28;20050;-59
2023/06/30 19:05:58;;;;;;;3.33;1.00;;;;;;;21.20;34.71;99448.75;10370648;28;20091;-59
2023/06/30 19:11:02;;;;;;;2.00;1.00;;;;;;;21.07;35.06;99446.63;10370051;28;20049;-59
2023/06/30 19:16:05;;;;;;;1.80;1.05;;;;;;;20.80;36.41;99447.88;10379698;28;20065;-59
2023/06/30 19:21:08;;;;;;;2.08;1.00;;;;;;;20.56;37.33;99458.44;10385009;28;20551;-59
2023/06/30 19:26:11;;;;;;;1.30;1.10;;;;;;;20.34;37.68;99453.81;10389567;28;20087;-59
2023/06/30 19:31:13;;;;;;;1.20;1.10;;;;;;;19.96;38.40;99460.56;10387018;28;20068;-59
2023/06/30 19:36:15;;;;;;;1.83;1.13;;;;;;;19.83;39.09;99462.84;10388826;28;20045;-59
2023/06/30 19:41:18;;;;;;;1.02;0.95;;;;;;;19.69;39.85;99460.78;10388035;28;20060;-59
2023/06/30 19:46:20;;;;;;;2.85;1.23;;;;;;;19.44;40.38;99473.09;10391819;28;20060;-58
2023/06/30 19:51:22;;;;;;;2.75;1.05;;;;;;;19.32;40.82;99471.72;10388554;28;20049;-58
2023/06/30 19:56:24;;;;;;;2.53;1.20;;;;;;;19.14;41.52;99476.28;10390016;28;20800;-58
2023/06/30 20:01:26;;;;;;;2.47;1.30;;;;;;;18.98;41.79;99475.31;10382278;28;20386;-58
2023/06/30 20:06:30;;;;;;;1.80;1.17;;;;;;;18.82;42.09;99470.72;10380563;28;20053;-58
2023/06/30 20:11:32;;;;;;;2.08;1.25;;;;;;;18.61;42.74;99479.03;10374336;28;20053;-58
2023/06/30 20:16:34;;;;;;;1.60;1.10;;;;;;;18.41;43.31;99474.03;10386790;28;20057;-58
2023/06/30 20:21:36;;;;;;;1.10;1.00;;;;;;;18.25;43.56;99477.38;10388627;28;20049;-58
2023/06/30 20:26:38;;;;;;;1.75;1.13;;;;;;;18.17;44.00;99474.63;10387761;28;20050;-58
2023/06/30 20:31:40;;;;;;;1.80;1.30;;;;;;;18.00;44.20;99471.94;10389753;28;20567;-58
2023/06/30 20:36:42;;;;;;;2.83;1.30;;;;;;;17.91;44.67;99479.00;10388762;28;20395;-58
2023/06/30 20:41:44;;;;;;;1.77;1.20;;;;;;;17.78;44.58;99483.78;10388505;28;20200;-58
2023/06/30 20:46:47;;;;;;;2.33;1.40;;;;;;;17.61;45.03;99472.19;10386848;28;20140;-58
2023/06/30 20:51:51;;;;;;;2.55;1.40;;;;;;;17.49;45.45;99473.34;10387412;28;20127;-58
2023/06/30 20:56:59;;;;;;;1.92;1.30;;;;;;;17.30;45.69;99468.13;10380493;28;20050;-58
2023/06/30 21:02:02;;;;;;;3.70;1.55;;;;;;;17.08;45.84;99470.31;10386230;28;20038;-58
2023/06/30 21:07:05;;;;;;;3.03;1.33;;;;;;;16.97;46.33;99474.78;10370427;28;20584;-58
2023/06/30 21:12:07;;;;;;;1.85;1.50;;;;;;;16.84;46.65;99463.69;10383822;28;20611;-58
2023/06/30 21:17:10;;;;;;;1.65;1.30;;;;;;;16.82;46.91;99465.63;10382702;28;20753;-58
2023/06/30 21:22:12;;;;;;;1.95;1.35;;;;;;;16.74;46.87;99462.88;10382502;28;20140;-58
2023/06/30 21:27:14;;;;;;;2.78;1.50;;;;;;;16.52;47.60;99459.69;10382874;28;20049;-58
2023/06/30 21:32:16;;;;;;;2.10;1.35;;;;;;;16.43;47.93;99473.69;10382328;28;20049;-58
2023/06/30 21:37:18;;;;;;;3.15;1.40;;;;;;;16.32;47.91;99472.06;10369952;28;20056;-58
2023/06/30 21:42:20;;;;;;;3.03;1.30;;;;;;;16.25;48.24;99465.66;10385751;28;20140;-58
2023/06/30 21:47:23;;;;;;;1.85;1.30;;;;;;;16.24;48.43;99467.44;10384929;28;20045;-58
2023/06/30 21:52:25;;;;;;;3.45;1.60;;;;;;;16.20;48.35;99468.69;10384656;28;20594;-58
2023/06/30 21:57:27;;;;;;;2.25;1.48;;;;;;;16.12;48.70;99465.91;10385644;28;20053;-57
2023/06/30 22:02:29;;;;;;;3.28;1.73;;;;;;;16.04;49.05;99462.31;10385490;28;20045;-58
2023/06/30 22:07:31;;;;;;;2.45;1.48;;;;;;;15.96;48.90;99464.78;10384427;28;20041;-58
2023/06/30 22:12:33;;;;;;;1.88;1.42;;;;;;;15.74;49.37;99457.97;10385782;28;20128;-58
2023/06/30 22:17:37;;;;;;;1.77;1.40;;;;;;;15.75;49.59;99457.00;10383612;28;20049;-58
2023/06/30 22:22:39;;;;;;;2.05;1.50;;;;;;;15.79;49.76;99450.47;10385100;28;20049;-58
2023/06/30 22:27:41;;;;;;;2.63;1.60;;;;;;;15.79;49.66;99449.66;10383382;28;20557;-58
2023/06/30 22:32:43;;;;;;;2.50;1.60;;;;;;;15.63;50.20;99442.28;10366581;28;20967;-58
2023/06/30 22:37:46;;;;;;;2.28;1.50;;;;;;;15.48;50.67;99446.19;10383694;28;20567;-58
2023/06/30 22:42:48;;;;;;;3.08;1.60;;;;;;;15.12;50.89;99444.94;10383737;28;20160;-58
2023/06/30 22:47:50;;;;;;;2.95;1.75;;;;;;;14.69;51.80;99448.75;10385176;28;20129;-58
2023/06/30 22:52:52;;;;;;;2.65;1.70;;;;;;;14.45;52.32;99441.91;10376059;28;20138;-58
2023/06/30 22:57:54;;;;;;;5.28;1.58;;;;;;;14.79;52.42;99442.56;10383666;28;20057;-58
2023/06/30 23:02:59;;;;;;;1.65;1.40;;;;;;;15.17;51.81;99434.03;10382873;28;20132;-58
2023/06/30 23:08:01;;;;;;;2.08;1.55;;;;;;;15.28;51.61;99431.31;10383194;28;20164;-58
2023/06/30 23:13:03;;;;;;;3.08;1.70;;;;;;;15.24;51.75;99428.09;10383907;28;20461;-58
2023/06/30 23:18:05;;;;;;;1.98;1.35;;;;;;;15.10;51.92;99427.63;10382365;28;20049;-58
2023/06/30 23:23:07;;;;;;;3.10;1.80;;;;;;;15.02;52.27;99424.81;10382270;28;20057;-58
2023/06/30 23:28:09;;;;;;;2.25;1.50;;;;;;;14.95;52.54;99423.66;10382209;28;20064;-58